Craynor, Kentucky
Current Conditions -  °F | °C
As of 4:55 AM on Thursday 23 Oct 2014 (Local Time) from KPBX Reporting Station
Overcast Overcast  
Wind Chill: 44°   Ceiling: 2600
Heat Index: 44°   Visibility: 10mi
Dew Point: 40°   Wind: 3mph
Humidity: 85%   Direction: 330°NNW
Pressure: 30.2"   Gusts: NA
Location:  37.4843°N, 82.6492°W
Report Text: KPBX 230855Z AUTO 33003KT 10SM OVC026 07/05 A3020 RMK AO2 T00690045
Loading
Personal Weather Stations






























Interactive Weather Map
Tropical Storm Tracking
New forecast layout! Learn more

10-Day Weather Forecast

Advertisements
Track Severe Weather on mobile